createdAt,value
2018-04-07T00:00:40.477Z,99.90
2018-04-07T00:03:08.824Z,99.90
2018-04-07T00:05:37.192Z,99.90
2018-04-07T00:08:05.595Z,99.90
2018-04-07T00:10:34.756Z,99.90
2018-04-07T00:13:03.146Z,99.90
2018-04-07T00:15:31.557Z,99.90
2018-04-07T00:18:00.708Z,99.90
2018-04-07T00:20:29.101Z,99.90
2018-04-07T00:22:57.504Z,99.90
2018-04-07T00:25:26.725Z,99.90
2018-04-07T00:27:55.072Z,99.90
2018-04-07T00:30:24.190Z,99.90
2018-04-07T00:32:52.620Z,99.90
2018-04-07T00:35:20.997Z,99.90
2018-04-07T00:37:49.404Z,99.90
2018-04-07T00:40:18.584Z,99.90
2018-04-07T00:42:47.039Z,99.90
2018-04-07T00:45:15.425Z,99.90
2018-04-07T00:47:43.826Z,99.90
2018-04-07T00:50:12.260Z,99.90
2018-04-07T00:52:52.476Z,99.90
2018-04-07T00:55:21.632Z,99.90
2018-04-07T00:57:50.025Z,99.90
2018-04-07T01:00:18.374Z,99.90
2018-04-07T01:02:46.822Z,99.90
2018-04-07T01:05:15.167Z,99.90
2018-04-07T01:07:44.337Z,99.90
2018-04-07T01:10:12.763Z,99.90
2018-04-07T01:12:41.147Z,99.90
2018-04-07T01:15:09.521Z,99.90
2018-04-07T01:17:37.915Z,99.90
2018-04-07T01:20:06.334Z,99.90
2018-04-07T01:22:34.737Z,99.90
2018-04-07T01:25:03.914Z,99.90
2018-04-07T01:27:32.313Z,99.90
2018-04-07T01:30:01.510Z,99.90
2018-04-07T01:32:30.647Z,99.90
2018-04-07T01:34:59.076Z,99.90
2018-04-07T01:37:27.501Z,99.90
2018-04-07T01:39:55.890Z,99.90
2018-04-07T01:42:24.293Z,99.90
2018-04-07T01:44:52.725Z,99.90
2018-04-07T01:47:21.159Z,99.90
2018-04-07T01:49:49.516Z,99.90
2018-04-07T01:52:17.956Z,99.90
2018-04-07T01:54:46.395Z,99.90
2018-04-07T01:57:14.830Z,99.90
2018-04-07T01:59:43.560Z,99.90
2018-04-07T02:02:11.921Z,99.90
2018-04-07T02:04:40.332Z,99.90
2018-04-07T02:07:09.524Z,99.90
2018-04-07T02:09:38.715Z,99.90
2018-04-07T02:12:07.085Z,99.90
2018-04-07T02:14:35.450Z,99.90
2018-04-07T02:17:03.849Z,99.90
2018-04-07T02:19:32.576Z,99.90
2018-04-07T02:22:00.959Z,99.90
2018-04-07T02:24:29.344Z,99.90
2018-04-07T02:26:57.786Z,99.90
2018-04-07T02:29:26.899Z,99.90
2018-04-07T02:31:55.267Z,99.90
2018-04-07T02:34:24.022Z,99.90
2018-04-07T02:36:52.369Z,99.90
2018-04-07T02:39:20.779Z,99.90
2018-04-07T02:41:49.206Z,99.90
2018-04-07T02:44:17.604Z,99.90
2018-04-07T02:46:45.986Z,99.90
2018-04-07T02:49:14.323Z,99.90
2018-04-07T02:51:42.743Z,99.90
2018-04-07T02:54:11.117Z,99.90
2018-04-07T02:56:39.502Z,99.90
2018-04-07T02:59:07.884Z,99.90
2018-04-07T03:01:36.356Z,99.90
2018-04-07T03:04:04.755Z,99.90
2018-04-07T03:06:33.132Z,99.90
2018-04-07T03:09:01.563Z,99.90
2018-04-07T03:11:29.924Z,99.90
2018-04-07T03:13:58.334Z,99.90
2018-04-07T03:16:26.725Z,99.90
2018-04-07T03:18:55.105Z,99.90
2018-04-07T03:21:23.876Z,99.90
2018-04-07T03:23:52.301Z,99.90
2018-04-07T03:26:20.704Z,99.90
2018-04-07T03:28:49.061Z,99.90
2018-04-07T03:31:18.254Z,99.90
2018-04-07T03:33:46.658Z,99.90
2018-04-07T03:36:15.101Z,99.90
2018-04-07T03:38:43.497Z,99.90
2018-04-07T03:41:12.622Z,99.90
2018-04-07T03:43:41.001Z,99.90
2018-04-07T03:46:09.434Z,99.90
2018-04-07T03:48:37.885Z,99.90
2018-04-07T03:51:06.304Z,99.90
2018-04-07T03:53:35.486Z,99.90
2018-04-07T03:56:03.917Z,99.90
2018-04-07T03:58:32.644Z,99.90
2018-04-07T04:01:01.029Z,99.90
2018-04-07T04:03:29.456Z,99.90
2018-04-07T04:05:57.855Z,99.90
2018-04-07T04:08:26.225Z,99.90
2018-04-07T04:10:54.621Z,99.90
2018-04-07T04:13:22.970Z,99.90
2018-04-07T04:15:51.373Z,99.90
2018-04-07T04:18:19.777Z,99.90
2018-04-07T04:20:48.134Z,99.90
2018-04-07T04:23:16.532Z,99.90
2018-04-07T04:25:44.962Z,99.90
2018-04-07T04:28:13.304Z,99.90
2018-04-07T04:30:42.485Z,99.90
2018-04-07T04:33:10.932Z,99.90
2018-04-07T04:35:39.338Z,99.90
2018-04-07T04:38:07.727Z,99.90
2018-04-07T04:40:36.920Z,99.90
2018-04-07T04:43:05.303Z,99.90
2018-04-07T04:45:34.456Z,99.90
2018-04-07T04:48:02.863Z,99.90
2018-04-07T04:50:31.274Z,99.90
2018-04-07T04:52:59.679Z,99.90
2018-04-07T04:55:28.048Z,99.90
2018-04-07T04:57:56.408Z,99.90
2018-04-07T05:00:25.125Z,99.90
2018-04-07T05:02:53.494Z,99.90
2018-04-07T05:05:21.844Z,99.90
2018-04-07T05:07:50.992Z,99.90
2018-04-07T05:10:19.336Z,99.90
2018-04-07T05:12:47.742Z,99.90
2018-04-07T05:15:16.128Z,99.90
2018-04-07T05:17:44.494Z,99.90
2018-04-07T05:20:12.898Z,99.90
2018-04-07T05:22:41.337Z,99.90
2018-04-07T05:25:09.715Z,99.90
2018-04-07T05:27:38.093Z,99.90
2018-04-07T05:30:06.511Z,99.90
2018-04-07T05:32:34.873Z,99.90
2018-04-07T05:35:03.312Z,99.90
2018-04-07T05:37:32.160Z,99.90
2018-04-07T05:40:00.524Z,99.90
2018-04-07T05:42:28.934Z,99.90
2018-04-07T05:44:58.084Z,99.90
2018-04-07T05:47:26.437Z,99.90
2018-04-07T05:49:54.842Z,99.90
2018-04-07T05:52:23.222Z,99.90
2018-04-07T05:54:51.628Z,99.90
2018-04-07T05:57:19.997Z,99.90
2018-04-07T05:59:48.398Z,99.90
2018-04-07T06:02:16.756Z,99.90
2018-04-07T06:04:45.137Z,99.90
2018-04-07T06:07:13.557Z,99.90
2018-04-07T06:09:41.932Z,99.90
2018-04-07T06:12:10.391Z,99.90
2018-04-07T06:14:39.522Z,99.90
2018-04-07T06:17:07.881Z,99.90
2018-04-07T06:19:36.300Z,99.90
2018-04-07T06:22:04.705Z,99.90
2018-04-07T06:24:33.108Z,99.90
2018-04-07T06:27:01.485Z,99.90
2018-04-07T06:29:29.874Z,99.90
2018-04-07T06:31:58.259Z,99.90
2018-04-07T06:34:26.672Z,99.90
2018-04-07T06:36:55.028Z,99.90
2018-04-07T06:39:23.428Z,99.90
2018-04-07T06:41:52.197Z,99.90
2018-04-07T06:44:20.563Z,99.90
2018-04-07T06:46:48.917Z,99.90
2018-04-07T06:49:17.348Z,99.90
2018-04-07T06:51:45.701Z,99.90
2018-04-07T06:54:14.084Z,99.90
2018-04-07T06:56:42.446Z,99.90
2018-04-07T06:59:10.808Z,99.90
2018-04-07T07:01:39.269Z,99.90
2018-04-07T07:04:08.372Z,99.90
2018-04-07T07:06:37.556Z,99.90
2018-04-07T07:09:06.792Z,99.90
2018-04-07T07:11:35.179Z,99.90
2018-04-07T07:14:03.562Z,99.90
2018-04-07T07:16:31.980Z,99.80
2018-04-07T07:19:01.176Z,98.00
2018-04-07T07:21:29.588Z,98.00
2018-04-07T07:23:58.032Z,95.80
2018-04-07T07:26:26.435Z,94.50
2018-04-07T07:28:54.806Z,92.20
2018-04-07T07:31:23.996Z,91.10
2018-04-07T07:33:53.164Z,89.70
2018-04-07T07:36:21.569Z,89.70
2018-04-07T07:38:50.717Z,90.60
2018-04-07T07:41:19.123Z,90.50
2018-04-07T07:43:47.572Z,84.50
2018-04-07T07:46:15.966Z,81.50
2018-04-07T07:48:44.440Z,80.80
2018-04-07T07:51:12.821Z,80.70
2018-04-07T07:53:41.212Z,82.50
2018-04-07T07:56:09.620Z,84.20
2018-04-07T07:58:38.774Z,79.30
2018-04-07T08:01:07.288Z,79.30
2018-04-07T08:03:36.473Z,80.90
2018-04-07T08:06:04.842Z,80.90
2018-04-07T08:08:33.190Z,79.80
2018-04-07T08:11:01.630Z,79.90
2018-04-07T08:13:30.779Z,76.40
2018-04-07T08:15:59.162Z,76.30
2018-04-07T08:18:27.567Z,80.20
2018-04-07T08:20:56.029Z,79.00
2018-04-07T08:23:24.430Z,73.10
2018-04-07T08:25:53.585Z,73.00
2018-04-07T08:28:22.016Z,73.00
2018-04-07T08:30:51.216Z,71.00
2018-04-07T08:33:19.720Z,71.00
2018-04-07T08:35:48.153Z,75.20
2018-04-07T08:38:17.338Z,70.00
2018-04-07T08:40:45.831Z,69.80
2018-04-07T08:43:14.957Z,71.60
2018-04-07T08:45:43.376Z,71.80
2018-04-07T08:48:11.757Z,70.20
2018-04-07T08:50:40.132Z,67.00
2018-04-07T08:53:08.513Z,69.00
2018-04-07T08:55:36.908Z,72.40
2018-04-07T08:58:05.329Z,70.30
2018-04-07T09:00:33.719Z,67.10
2018-04-07T09:03:02.193Z,66.30
2018-04-07T09:05:30.661Z,66.10
2018-04-07T09:07:59.045Z,67.70
2018-04-07T09:10:27.441Z,67.60
2018-04-07T09:12:55.850Z,63.10
2018-04-07T09:15:24.237Z,65.00
2018-04-07T09:17:52.604Z,64.60
2018-04-07T09:20:21.046Z,63.90
2018-04-07T09:22:49.447Z,64.10
2018-04-07T09:25:17.849Z,62.50
2018-04-07T09:27:47.013Z,62.10
2018-04-07T09:30:15.423Z,61.30
2018-04-07T09:32:43.818Z,62.90
2018-04-07T09:35:12.970Z,61.10
2018-04-07T09:37:41.368Z,61.10
2018-04-07T09:40:09.778Z,60.70
2018-04-07T09:42:38.179Z,61.40
2018-04-07T09:45:06.571Z,59.10
2018-04-07T09:47:35.016Z,59.70
2018-04-07T09:50:03.467Z,58.30
2018-04-07T09:52:31.898Z,57.50
2018-04-07T09:55:00.292Z,58.20
2018-04-07T09:57:28.715Z,58.40
2018-04-07T09:59:57.894Z,57.00
2018-04-07T10:02:26.284Z,56.90
2018-04-07T10:04:54.734Z,57.90
2018-04-07T10:07:23.142Z,56.10
2018-04-07T10:09:52.264Z,57.30
2018-04-07T10:12:20.681Z,57.30
2018-04-07T10:14:49.093Z,58.10
2018-04-07T10:17:17.489Z,55.50
2018-04-07T10:19:45.876Z,56.20
2018-04-07T10:22:14.360Z,54.30
2018-04-07T10:24:42.743Z,56.20
2018-04-07T10:27:11.108Z,57.10
2018-04-07T10:29:40.341Z,52.90
2018-04-07T10:32:09.045Z,56.80
2018-04-07T10:34:37.426Z,56.40
2018-04-07T10:37:05.830Z,55.50
2018-04-07T10:39:34.991Z,52.90
2018-04-07T10:42:03.362Z,52.90
2018-04-07T10:44:31.764Z,53.30
2018-04-07T10:47:00.158Z,52.90
2018-04-07T10:49:29.331Z,52.80
2018-04-07T10:51:57.741Z,52.80
2018-04-07T10:54:26.907Z,55.70
2018-04-07T10:56:55.307Z,55.70
2018-04-07T10:59:24.530Z,51.30
2018-04-07T11:01:52.925Z,51.20
2018-04-07T11:04:21.336Z,54.70
2018-04-07T11:06:49.724Z,54.80
2018-04-07T11:09:18.081Z,51.90
2018-04-07T11:11:46.455Z,49.80
2018-04-07T11:14:14.872Z,54.40
2018-04-07T11:16:43.997Z,50.30
2018-04-07T11:19:12.475Z,50.20
2018-04-07T11:21:40.897Z,51.00
2018-04-07T11:24:09.302Z,50.00
2018-04-07T11:26:38.512Z,47.90
2018-04-07T11:29:07.741Z,49.20
2018-04-07T11:31:36.146Z,49.30
2018-04-07T11:34:04.550Z,47.90
2018-04-07T11:36:33.766Z,47.80
2018-04-07T11:39:02.195Z,47.80
2018-04-07T11:41:30.590Z,49.90
2018-04-07T11:43:59.004Z,48.10
2018-04-07T11:46:27.467Z,48.80
2018-04-07T11:48:56.609Z,50.70
2018-04-07T11:51:25.006Z,50.00
2018-04-07T11:53:53.421Z,49.80
2018-04-07T11:56:22.589Z,47.30
2018-04-07T11:58:51.005Z,47.30
2018-04-07T12:01:20.137Z,47.40
2018-04-07T12:03:48.505Z,47.40
2018-04-07T12:06:16.956Z,46.60
2018-04-07T12:08:46.078Z,46.90
2018-04-07T12:11:14.459Z,46.90
2018-04-07T12:13:42.892Z,48.70
2018-04-07T12:16:12.121Z,48.20
2018-04-07T12:18:40.520Z,47.70
2018-04-07T12:21:08.898Z,48.30
2018-04-07T12:23:37.348Z,46.60
2018-04-07T12:26:05.707Z,45.30
2018-04-07T12:28:34.928Z,45.50
2018-04-07T12:31:03.312Z,45.40
2018-04-07T12:33:31.731Z,45.40
2018-04-07T12:36:00.133Z,47.00
2018-04-07T12:38:29.313Z,46.80
2018-04-07T12:40:57.726Z,46.60
2018-04-07T12:43:26.873Z,46.90
2018-04-07T12:45:55.256Z,46.90
2018-04-07T12:48:23.636Z,46.40
2018-04-07T12:50:52.021Z,46.30
2018-04-07T12:53:20.464Z,45.80
2018-04-07T12:55:48.846Z,46.10
2018-04-07T12:58:17.256Z,45.40
2018-04-07T13:00:45.695Z,44.40
2018-04-07T13:03:14.053Z,47.70
2018-04-07T13:05:42.404Z,45.80
2018-04-07T13:08:10.790Z,47.70
2018-04-07T13:10:39.936Z,45.90
2018-04-07T13:13:08.374Z,46.50
2018-04-07T13:15:37.512Z,45.20
2018-04-07T13:18:05.967Z,45.20
2018-04-07T13:20:34.384Z,43.20
2018-04-07T13:23:03.208Z,45.00
2018-04-07T13:25:32.340Z,43.90
2018-04-07T13:28:00.699Z,43.90
2018-04-07T13:30:29.105Z,43.50
2018-04-07T13:32:57.508Z,42.20
2018-04-07T13:35:25.939Z,42.80
2018-04-07T13:37:54.343Z,44.30
2018-04-07T13:40:22.727Z,43.60
2018-04-07T13:42:51.113Z,42.40
2018-04-07T13:45:19.484Z,42.60
2018-04-07T13:47:47.866Z,44.30
2018-04-07T13:50:16.294Z,41.90
2018-04-07T13:52:44.673Z,42.80
2018-04-07T13:55:13.856Z,42.40
2018-04-07T13:57:43.001Z,42.10
2018-04-07T14:00:11.446Z,42.00
2018-04-07T14:02:39.850Z,44.00
2018-04-07T14:05:08.271Z,44.90
2018-04-07T14:07:36.615Z,42.90
2018-04-07T14:10:05.038Z,41.70
2018-04-07T14:12:34.189Z,41.30
2018-04-07T14:15:02.605Z,41.10
2018-04-07T14:17:30.960Z,42.00
2018-04-07T14:19:59.354Z,41.90
2018-04-07T14:22:27.802Z,42.00
2018-04-07T14:24:56.242Z,42.60
2018-04-07T14:27:24.679Z,42.70
2018-04-07T14:29:53.091Z,43.50
2018-04-07T14:32:22.263Z,42.50
2018-04-07T14:34:50.681Z,42.40
2018-04-07T14:37:19.081Z,40.00
2018-04-07T14:39:47.488Z,40.90
2018-04-07T14:42:15.884Z,43.90
2018-04-07T14:44:44.242Z,41.40
2018-04-07T14:47:12.628Z,42.20
2018-04-07T14:49:41.008Z,41.40
2018-04-07T14:52:10.300Z,44.70
2018-04-07T14:54:38.738Z,42.30
2018-04-07T14:57:07.088Z,41.80
2018-04-07T14:59:36.285Z,41.90
2018-04-07T15:02:05.455Z,41.30
2018-04-07T15:04:33.878Z,41.20
2018-04-07T15:07:02.302Z,41.40
2018-04-07T15:09:30.665Z,43.30
2018-04-07T15:11:59.024Z,41.20
2018-04-07T15:14:27.475Z,40.90
2018-04-07T15:16:56.657Z,42.90
2018-04-07T15:19:25.794Z,43.10
2018-04-07T15:21:54.202Z,42.60
2018-04-07T15:24:22.594Z,43.00
2018-04-07T15:26:51.000Z,42.10
2018-04-07T15:29:20.144Z,43.30
2018-04-07T15:31:48.596Z,43.20
2018-04-07T15:34:17.027Z,41.40
2018-04-07T15:36:45.411Z,42.50
2018-04-07T15:39:13.827Z,43.70
2018-04-07T15:41:42.241Z,43.90
2018-04-07T15:44:10.589Z,43.30
2018-04-07T15:46:38.991Z,44.90
2018-04-07T15:49:07.355Z,41.40
2018-04-07T15:51:35.828Z,43.50
2018-04-07T15:54:04.233Z,44.10
2018-04-07T15:56:32.609Z,42.70
2018-04-07T15:59:01.014Z,44.30
2018-04-07T16:01:29.422Z,44.60
2018-04-07T16:03:57.781Z,45.20
2018-04-07T16:06:26.955Z,46.60
2018-04-07T16:08:55.757Z,46.60
2018-04-07T16:11:24.339Z,46.10
2018-04-07T16:13:52.699Z,46.80
2018-04-07T16:16:21.917Z,45.80
2018-04-07T16:18:50.353Z,45.70
2018-04-07T16:21:18.755Z,46.20
2018-04-07T16:23:47.169Z,46.10
2018-04-07T16:26:16.739Z,44.50
2018-04-07T16:28:45.087Z,44.40
2018-04-07T16:31:13.487Z,45.80
2018-04-07T16:33:41.965Z,47.10
2018-04-07T16:36:10.360Z,47.50
2018-04-07T16:38:38.763Z,48.50
2018-04-07T16:41:07.916Z,49.00
2018-04-07T16:43:36.335Z,49.10
2018-04-07T16:46:05.486Z,49.30
2018-04-07T16:48:33.831Z,49.30
2018-04-07T16:51:02.229Z,47.20
2018-04-07T16:53:30.668Z,48.30
2018-04-07T16:55:59.830Z,49.00
2018-04-07T16:58:28.243Z,48.90
2018-04-07T17:00:57.461Z,49.40
2018-04-07T17:03:25.904Z,49.50
2018-04-07T17:05:54.312Z,49.50
2018-04-07T17:08:22.731Z,52.00
2018-04-07T17:10:51.140Z,51.30
2018-04-07T17:13:19.533Z,52.30
2018-04-07T17:15:48.684Z,52.50
2018-04-07T17:18:17.140Z,52.50
2018-04-07T17:20:45.575Z,53.10
2018-04-07T17:23:14.758Z,55.00
2018-04-07T17:25:43.163Z,54.90
2018-04-07T17:28:12.292Z,57.60
2018-04-07T17:30:40.693Z,57.50
2018-04-07T17:33:09.141Z,58.50
2018-04-07T17:35:37.537Z,59.20
2018-04-07T17:38:05.929Z,59.70
2018-04-07T17:40:34.342Z,59.10
2018-04-07T17:43:03.492Z,61.30
2018-04-07T17:45:31.858Z,61.10
2018-04-07T17:48:00.261Z,61.10
2018-04-07T17:50:28.678Z,62.90
2018-04-07T17:52:57.848Z,66.80
2018-04-07T17:55:26.259Z,66.80
2018-04-07T17:57:54.633Z,69.60
2018-04-07T18:00:23.842Z,75.80
2018-04-07T18:02:52.288Z,75.60
2018-04-07T18:05:20.678Z,79.80
2018-04-07T18:07:49.887Z,85.80
2018-04-07T18:10:19.039Z,90.70
2018-04-07T18:12:47.459Z,90.60
2018-04-07T18:15:16.108Z,92.80
2018-04-07T18:17:44.494Z,94.70
2018-04-07T18:20:12.915Z,96.50
2018-04-07T18:22:41.322Z,97.00
2018-04-07T18:25:09.820Z,96.80
2018-04-07T18:27:38.217Z,98.20
2018-04-07T18:30:07.349Z,99.90
2018-04-07T18:32:35.777Z,99.90
2018-04-07T18:35:04.205Z,99.90
2018-04-07T18:37:32.588Z,99.90
2018-04-07T18:40:00.986Z,99.90
2018-04-07T18:42:29.382Z,99.90
2018-04-07T18:44:57.784Z,99.90
2018-04-07T18:47:27.008Z,99.90
2018-04-07T18:49:55.372Z,99.90
2018-04-07T18:52:24.522Z,99.90
2018-04-07T18:54:52.960Z,99.90
2018-04-07T18:57:22.121Z,99.90
2018-04-07T18:59:51.310Z,99.90
2018-04-07T19:02:19.670Z,99.90
2018-04-07T19:04:48.033Z,99.90
2018-04-07T19:07:16.467Z,99.90
2018-04-07T19:09:45.705Z,99.90
2018-04-07T19:12:14.137Z,99.90
2018-04-07T19:14:43.328Z,99.90
2018-04-07T19:17:12.544Z,99.90
2018-04-07T19:19:41.004Z,99.90
2018-04-07T19:22:09.402Z,99.90
2018-04-07T19:24:37.855Z,99.90
2018-04-07T19:27:06.378Z,99.90
2018-04-07T19:29:34.824Z,99.90
2018-04-07T19:32:04.012Z,99.90
2018-04-07T19:34:32.382Z,99.90
2018-04-07T19:37:00.779Z,99.90
2018-04-07T19:39:30.669Z,99.90
2018-04-07T19:41:59.117Z,99.90
2018-04-07T19:44:27.531Z,99.90
2018-04-07T19:46:56.333Z,99.90
2018-04-07T19:49:28.644Z,99.90
2018-04-07T19:51:57.312Z,99.90
2018-04-07T19:54:25.666Z,99.90
2018-04-07T19:56:54.095Z,99.90
2018-04-07T19:59:22.452Z,99.90
2018-04-07T20:01:50.931Z,99.90
2018-04-07T20:04:19.299Z,99.90
2018-04-07T20:06:47.706Z,99.90
2018-04-07T20:09:16.098Z,99.90
2018-04-07T20:11:44.540Z,99.90
2018-04-07T20:14:12.958Z,99.90
2018-04-07T20:16:41.385Z,99.90
2018-04-07T20:19:10.612Z,99.90
2018-04-07T20:21:39.768Z,99.90
2018-04-07T20:24:08.954Z,99.90
2018-04-07T20:26:37.344Z,99.90
2018-04-07T20:29:06.572Z,99.90
2018-04-07T20:31:34.941Z,99.90
2018-04-07T20:34:03.312Z,99.90
2018-04-07T20:36:32.457Z,99.90
2018-04-07T20:39:00.817Z,99.90
2018-04-07T20:41:29.216Z,99.90
2018-04-07T20:43:57.591Z,99.90
2018-04-07T20:46:26.063Z,99.90
2018-04-07T20:48:54.445Z,99.90
2018-04-07T20:51:22.807Z,99.90
2018-04-07T20:53:51.220Z,99.90
2018-04-07T20:56:19.644Z,99.90
2018-04-07T20:58:48.039Z,99.90
2018-04-07T21:01:16.464Z,99.90
2018-04-07T21:03:44.831Z,99.90
2018-04-07T21:06:13.215Z,99.90
2018-04-07T21:08:41.593Z,99.90
2018-04-07T21:11:10.073Z,99.90
2018-04-07T21:13:38.509Z,99.90
2018-04-07T21:16:06.951Z,99.90
2018-04-07T21:18:36.105Z,99.90
2018-04-07T21:21:04.487Z,99.90
2018-04-07T21:23:32.941Z,99.90
2018-04-07T21:26:01.346Z,99.90
2018-04-07T21:28:29.782Z,99.90
2018-04-07T21:30:58.232Z,99.90
2018-04-07T21:33:27.414Z,99.90
2018-04-07T21:35:55.760Z,99.90
2018-04-07T21:38:24.196Z,99.90
2018-04-07T21:40:53.312Z,99.90
2018-04-07T21:43:21.685Z,99.90
2018-04-07T21:45:50.065Z,99.90
2018-04-07T21:48:18.449Z,99.90
2018-04-07T21:50:46.842Z,99.90
2018-04-07T21:53:15.224Z,99.90
2018-04-07T21:55:43.652Z,99.90
2018-04-07T21:58:12.788Z,99.90
2018-04-07T22:00:41.188Z,99.90
2018-04-07T22:03:09.609Z,99.90
2018-04-07T22:05:38.775Z,99.90
2018-04-07T22:08:07.164Z,99.90
2018-04-07T22:10:36.015Z,99.90
2018-04-07T22:13:04.467Z,99.90
2018-04-07T22:15:32.830Z,99.90
2018-04-07T22:18:02.006Z,99.90
2018-04-07T22:20:30.404Z,99.90
2018-04-07T22:22:59.586Z,99.90
2018-04-07T22:25:28.741Z,99.90
2018-04-07T22:27:57.232Z,99.90
2018-04-07T22:30:25.652Z,99.90
2018-04-07T22:32:54.820Z,99.90
2018-04-07T22:35:23.277Z,99.90
2018-04-07T22:37:51.753Z,99.90
2018-04-07T22:40:20.138Z,99.90
2018-04-07T22:42:48.574Z,99.90
2018-04-07T22:45:16.968Z,99.90
2018-04-07T22:47:45.353Z,99.90
2018-04-07T22:50:13.779Z,99.90
2018-04-07T22:52:42.189Z,99.90
2018-04-07T22:55:10.623Z,99.90
2018-04-07T22:57:39.016Z,99.90
2018-04-07T23:00:07.451Z,99.90
2018-04-07T23:02:35.800Z,99.90
2018-04-07T23:05:04.211Z,99.90
2018-04-07T23:07:32.567Z,99.90
2018-04-07T23:10:00.997Z,99.90
2018-04-07T23:12:29.401Z,99.90
2018-04-07T23:14:58.531Z,99.90
2018-04-07T23:17:26.919Z,99.90
2018-04-07T23:19:55.319Z,99.90
2018-04-07T23:22:23.764Z,99.90
2018-04-07T23:24:52.128Z,99.90
2018-04-07T23:27:20.524Z,99.90
2018-04-07T23:29:48.897Z,99.90
2018-04-07T23:32:17.279Z,99.90
2018-04-07T23:34:46.447Z,99.90
2018-04-07T23:37:14.833Z,99.90
2018-04-07T23:39:43.206Z,99.90
2018-04-07T23:42:11.632Z,99.90
2018-04-07T23:44:40.058Z,99.90
2018-04-07T23:47:09.200Z,99.90
2018-04-07T23:49:37.639Z,99.90
2018-04-07T23:52:06.034Z,99.90
2018-04-07T23:54:34.482Z,99.90
2018-04-07T23:57:03.626Z,99.90
2018-04-07T23:59:32.016Z,99.90
